createdAt,value
2019-04-16T00:01:34.522Z,57.20
2019-04-16T00:04:09.287Z,57.30
2019-04-16T00:06:57.202Z,57.30
2019-04-16T00:09:33.071Z,57.30
2019-04-16T00:12:21.124Z,57.30
2019-04-16T00:14:49.856Z,57.40
2019-04-16T00:17:18.709Z,57.40
2019-04-16T00:19:47.623Z,57.40
2019-04-16T00:22:35.429Z,57.40
2019-04-16T00:25:04.341Z,57.20
2019-04-16T00:27:33.098Z,57.10
2019-04-16T00:30:04.867Z,57.10
2019-04-16T00:32:32.309Z,57.10
2019-04-16T00:35:01.111Z,57.20
2019-04-16T00:37:29.879Z,57.20
2019-04-16T00:39:58.644Z,57.20
2019-04-16T00:42:27.422Z,57.20
2019-04-16T00:44:56.159Z,57.30
2019-04-16T00:47:24.911Z,57.40
2019-04-16T00:49:57.716Z,57.30
2019-04-16T00:52:24.263Z,57.40
2019-04-16T00:54:53.014Z,57.40
2019-04-16T00:57:21.767Z,57.40
2019-04-16T00:59:55.108Z,57.40
2019-04-16T01:02:21.167Z,57.40
2019-04-16T01:04:49.922Z,57.40
2019-04-16T01:07:18.673Z,57.40
2019-04-16T01:09:47.431Z,57.50
2019-04-16T01:12:16.216Z,57.50
2019-04-16T01:14:44.965Z,57.50
2019-04-16T01:17:14.199Z,57.50
2019-04-16T01:19:43.041Z,57.50
2019-04-16T01:22:15.704Z,57.50
2019-04-16T01:24:42.349Z,57.40
2019-04-16T01:27:11.161Z,57.20
2019-04-16T01:29:39.912Z,57.10
2019-04-16T01:32:26.854Z,57.10
2019-04-16T01:35:18.583Z,57.80
2019-04-16T01:38:03.687Z,57.20
2019-04-16T01:40:47.373Z,57.30
2019-04-16T01:43:17.233Z,57.20
2019-04-16T01:45:46.066Z,57.40
2019-04-16T01:48:14.817Z,57.30
2019-04-16T01:50:44.424Z,57.40
2019-04-16T01:53:13.300Z,57.40
2019-04-16T01:55:42.546Z,57.40
2019-04-16T01:58:11.631Z,57.50
2019-04-16T02:00:40.455Z,57.50
2019-04-16T02:03:09.247Z,57.40
2019-04-16T02:05:38.059Z,57.30
2019-04-16T02:08:06.861Z,57.20
2019-04-16T02:10:38.473Z,57.20
2019-04-16T02:13:06.259Z,57.20
2019-04-16T02:15:35.093Z,57.30
2019-04-16T02:18:04.003Z,57.20
2019-04-16T02:20:32.936Z,57.20
2019-04-16T02:23:01.785Z,57.20
2019-04-16T02:25:30.571Z,57.30
2019-04-16T02:27:59.309Z,57.30
2019-04-16T02:30:28.125Z,57.40
2019-04-16T02:32:56.922Z,57.40
2019-04-16T02:35:25.672Z,57.40
2019-04-16T02:37:54.524Z,57.40
2019-04-16T02:40:23.275Z,57.40
2019-04-16T02:42:52.048Z,57.50
2019-04-16T02:45:23.705Z,57.40
2019-04-16T02:47:51.290Z,57.40
2019-04-16T02:50:30.522Z,57.40
2019-04-16T02:53:01.212Z,57.50
2019-04-16T02:55:55.152Z,57.50
2019-04-16T02:58:37.685Z,57.60
2019-04-16T03:01:24.120Z,57.50
2019-04-16T03:04:01.470Z,57.50
2019-04-16T03:06:31.994Z,57.20
2019-04-16T03:09:00.663Z,57.10
2019-04-16T03:11:29.531Z,57.10
2019-04-16T03:13:59.353Z,57.20
2019-04-16T03:16:46.062Z,57.20
2019-04-16T03:19:20.282Z,57.20
2019-04-16T03:21:49.202Z,57.20
2019-04-16T03:24:17.949Z,57.30
2019-04-16T03:26:47.582Z,57.30
2019-04-16T03:29:17.274Z,57.40
2019-04-16T03:31:46.037Z,57.40
2019-04-16T03:34:14.991Z,57.50
2019-04-16T03:36:43.832Z,57.50
2019-04-16T03:39:13.926Z,57.40
2019-04-16T03:41:43.238Z,57.50
2019-04-16T03:44:12.038Z,57.50
2019-04-16T03:46:46.000Z,57.50
2019-04-16T03:49:11.561Z,57.50
2019-04-16T03:51:40.293Z,57.50
2019-04-16T03:54:09.147Z,57.40
2019-04-16T03:56:37.896Z,57.30
2019-04-16T03:59:10.771Z,57.20
2019-04-16T04:01:37.201Z,57.20
2019-04-16T04:04:05.972Z,57.10
2019-04-16T04:06:36.557Z,57.00
2019-04-16T04:09:06.483Z,56.80
2019-04-16T04:11:40.682Z,56.70
2019-04-16T04:14:06.112Z,56.80
2019-04-16T04:16:34.948Z,56.90
2019-04-16T04:19:03.715Z,57.00
2019-04-16T04:21:32.476Z,56.90
2019-04-16T04:24:01.281Z,56.80
2019-04-16T04:26:30.130Z,57.50
2019-04-16T04:28:59.040Z,56.90
2019-04-16T04:31:32.057Z,56.90
2019-04-16T04:33:58.471Z,56.90
2019-04-16T04:36:28.404Z,57.00
2019-04-16T04:38:57.376Z,57.00
2019-04-16T04:41:26.223Z,56.90
2019-04-16T04:43:55.043Z,56.90
2019-04-16T04:46:23.802Z,57.00
2019-04-16T04:48:55.328Z,57.00
2019-04-16T04:51:22.997Z,56.90
2019-04-16T04:53:52.060Z,57.10
2019-04-16T04:56:20.850Z,57.00
2019-04-16T04:58:49.606Z,57.00
2019-04-16T05:01:18.370Z,57.10
2019-04-16T05:04:06.524Z,57.10
2019-04-16T05:06:37.236Z,57.00
2019-04-16T05:09:07.111Z,56.90
2019-04-16T05:11:36.028Z,56.60
2019-04-16T05:14:04.794Z,56.60
2019-04-16T05:16:34.465Z,56.60
2019-04-16T05:19:04.224Z,56.80
2019-04-16T05:21:33.077Z,56.80
2019-04-16T05:24:01.866Z,56.90
2019-04-16T05:26:33.639Z,57.00
2019-04-16T05:29:16.561Z,57.00
2019-04-16T05:31:42.471Z,57.10
2019-04-16T05:34:12.230Z,57.20
2019-04-16T05:36:46.253Z,57.20
2019-04-16T05:39:11.466Z,57.30
2019-04-16T05:41:40.194Z,57.40
2019-04-16T05:44:08.971Z,57.40
2019-04-16T05:46:38.368Z,57.20
2019-04-16T05:49:07.366Z,57.80
2019-04-16T05:51:36.108Z,57.20
2019-04-16T05:54:18.076Z,57.20
2019-04-16T05:56:52.329Z,57.30
2019-04-16T05:59:21.408Z,57.20
2019-04-16T06:01:59.418Z,57.30
2019-04-16T06:04:28.262Z,57.30
2019-04-16T06:06:57.006Z,57.30
2019-04-16T06:09:25.849Z,57.30
2019-04-16T06:11:54.617Z,58.00
2019-04-16T06:14:34.551Z,57.40
2019-04-16T06:17:25.203Z,57.40
2019-04-16T06:20:19.103Z,57.50
2019-04-16T06:23:14.355Z,57.40
2019-04-16T06:25:47.806Z,57.40
2019-04-16T06:28:34.573Z,57.40
2019-04-16T06:31:17.950Z,57.20
2019-04-16T06:34:09.143Z,57.40
2019-04-16T06:36:50.627Z,57.50
2019-04-16T06:39:36.990Z,57.40
2019-04-16T06:42:23.188Z,57.50
2019-04-16T06:44:56.641Z,57.40
2019-04-16T06:47:42.099Z,57.30
2019-04-16T06:50:45.242Z,57.10
2019-04-16T06:53:19.869Z,57.00
2019-04-16T06:56:20.255Z,57.10
2019-04-16T06:59:16.672Z,57.10
2019-04-16T07:02:18.029Z,57.40
2019-04-16T07:05:08.982Z,57.30
2019-04-16T07:07:59.626Z,57.30
2019-04-16T07:10:44.094Z,57.40
2019-04-16T07:13:11.480Z,57.40
2019-04-16T07:15:40.488Z,57.40
2019-04-16T07:18:09.326Z,57.40
2019-04-16T07:20:38.070Z,57.40
2019-04-16T07:23:06.843Z,57.40
2019-04-16T07:25:41.708Z,57.50
2019-04-16T07:28:26.491Z,57.70
2019-04-16T07:31:32.958Z,57.50
2019-04-16T07:34:16.203Z,57.40
2019-04-16T07:37:07.639Z,57.50
2019-04-16T07:39:54.113Z,57.50
2019-04-16T07:42:33.303Z,57.60
2019-04-16T07:45:24.352Z,57.50
2019-04-16T07:48:06.751Z,57.50
2019-04-16T07:50:54.818Z,57.30
2019-04-16T07:53:47.094Z,57.20
2019-04-16T07:56:24.460Z,57.20
2019-04-16T07:58:53.195Z,57.30
2019-04-16T08:01:21.941Z,57.20
2019-04-16T08:03:50.799Z,57.30
2019-04-16T08:06:19.556Z,57.30
2019-04-16T08:08:48.367Z,57.40
2019-04-16T08:11:17.210Z,57.40
2019-04-16T08:13:46.332Z,57.50
2019-04-16T08:16:15.161Z,57.50
2019-04-16T08:18:52.834Z,57.50
2019-04-16T08:21:22.662Z,57.50
2019-04-16T08:24:00.915Z,57.50
2019-04-16T08:26:29.658Z,57.60
2019-04-16T08:28:58.506Z,57.60
2019-04-16T08:31:28.912Z,57.60
2019-04-16T08:33:57.747Z,57.60
2019-04-16T08:36:26.585Z,57.60
2019-04-16T08:38:55.433Z,57.60
2019-04-16T08:41:24.290Z,58.20
2019-04-16T08:43:53.065Z,57.60
2019-04-16T08:46:21.909Z,57.60
2019-04-16T08:48:54.100Z,57.40
2019-04-16T08:51:30.149Z,57.30
2019-04-16T08:53:51.620Z,57.30
2019-04-16T08:56:20.371Z,57.40
2019-04-16T08:58:49.239Z,57.30
2019-04-16T09:01:23.587Z,57.30
2019-04-16T09:03:51.719Z,57.40
2019-04-16T09:06:20.479Z,57.40
2019-04-16T09:09:13.435Z,57.50
2019-04-16T09:11:40.633Z,57.50
2019-04-16T09:14:09.409Z,57.60
2019-04-16T09:16:47.515Z,57.60
2019-04-16T09:19:17.573Z,57.60
2019-04-16T09:21:46.406Z,57.70
2019-04-16T09:24:28.261Z,57.70
2019-04-16T09:27:16.043Z,57.50
2019-04-16T09:30:02.580Z,57.60
2019-04-16T09:32:39.452Z,57.60
2019-04-16T09:35:20.967Z,57.60
2019-04-16T09:38:20.901Z,57.70
2019-04-16T09:41:12.150Z,57.70
2019-04-16T09:43:43.810Z,57.70
2019-04-16T09:46:21.164Z,57.80
2019-04-16T09:48:43.070Z,57.70
2019-04-16T09:51:12.189Z,57.80
2019-04-16T09:53:41.073Z,57.80
2019-04-16T09:56:31.510Z,57.80
2019-04-16T09:59:05.722Z,57.70
2019-04-16T10:01:46.115Z,57.80
2019-04-16T10:04:17.242Z,57.80
2019-04-16T10:06:46.166Z,57.60
2019-04-16T10:09:19.855Z,57.50
2019-04-16T10:11:45.648Z,57.60
2019-04-16T10:14:14.630Z,57.60
2019-04-16T10:16:43.595Z,57.60
2019-04-16T10:19:12.715Z,57.70
2019-04-16T10:21:41.737Z,57.60
2019-04-16T10:24:29.589Z,57.70
2019-04-16T10:26:59.996Z,57.80
2019-04-16T10:29:29.464Z,58.40
2019-04-16T10:31:58.325Z,57.80
2019-04-16T10:34:27.239Z,57.80
2019-04-16T10:36:56.071Z,57.90
2019-04-16T10:39:32.497Z,57.80
2019-04-16T10:42:12.788Z,57.80
2019-04-16T10:44:59.427Z,58.30
2019-04-16T10:47:40.344Z,57.90
2019-04-16T10:50:40.608Z,58.00
2019-04-16T10:53:23.067Z,58.00
2019-04-16T10:56:10.408Z,58.00
2019-04-16T10:58:57.063Z,58.00
2019-04-16T11:01:35.166Z,58.00
2019-04-16T11:04:21.868Z,57.90
2019-04-16T11:06:51.594Z,58.40
2019-04-16T11:09:20.350Z,57.70
2019-04-16T11:11:49.180Z,57.70
2019-04-16T11:14:17.994Z,57.70
2019-04-16T11:16:49.309Z,57.80
2019-04-16T11:19:18.142Z,57.70
2019-04-16T11:21:47.184Z,57.70
2019-04-16T11:24:16.364Z,57.80
2019-04-16T11:26:45.270Z,57.80
2019-04-16T11:29:14.028Z,57.80
2019-04-16T11:31:42.880Z,57.80
2019-04-16T11:34:12.468Z,57.90
2019-04-16T11:36:41.311Z,57.80
2019-04-16T11:39:11.543Z,57.80
2019-04-16T11:41:40.437Z,57.80
2019-04-16T11:44:15.671Z,57.80
2019-04-16T11:46:39.885Z,57.80
2019-04-16T11:49:08.827Z,57.70
2019-04-16T11:51:37.768Z,57.70
2019-04-16T11:54:06.727Z,57.80
2019-04-16T11:56:35.750Z,57.80
2019-04-16T11:59:04.656Z,57.80
2019-04-16T12:01:55.377Z,57.80
2019-04-16T12:04:43.267Z,58.40
2019-04-16T12:07:30.288Z,57.80
2019-04-16T12:10:24.226Z,57.80
2019-04-16T12:13:03.258Z,57.80
2019-04-16T12:15:41.805Z,57.90
2019-04-16T12:18:21.126Z,57.90
2019-04-16T12:21:06.448Z,58.00
2019-04-16T12:24:01.588Z,57.90
2019-04-16T12:26:52.710Z,57.90
2019-04-16T12:29:43.796Z,57.90
2019-04-16T12:32:37.887Z,57.90
2019-04-16T12:35:28.021Z,57.80
2019-04-16T12:38:18.557Z,57.80
2019-04-16T12:40:53.901Z,57.80
2019-04-16T12:43:34.487Z,57.90
2019-04-16T12:46:15.573Z,57.80
2019-04-16T12:49:06.583Z,57.90
2019-04-16T12:51:51.709Z,57.90
2019-04-16T12:54:38.573Z,57.90
2019-04-16T12:57:46.917Z,58.00
2019-04-16T13:00:17.012Z,58.00
2019-04-16T13:03:04.849Z,58.00
2019-04-16T13:05:56.025Z,58.00
2019-04-16T13:08:53.642Z,58.00
2019-04-16T13:11:39.919Z,58.00
2019-04-16T13:14:40.046Z,58.00
2019-04-16T13:17:27.851Z,58.10
2019-04-16T13:20:06.334Z,58.10
2019-04-16T13:22:42.486Z,58.10
2019-04-16T13:25:19.999Z,58.10
2019-04-16T13:27:50.864Z,58.10
2019-04-16T13:30:19.572Z,58.00
2019-04-16T13:32:48.300Z,57.80
2019-04-16T13:35:17.143Z,57.70
2019-04-16T13:37:45.902Z,57.70
2019-04-16T13:40:15.735Z,57.80
2019-04-16T13:42:44.523Z,57.80
2019-04-16T13:45:25.595Z,57.80
2019-04-16T13:47:54.553Z,57.80
2019-04-16T13:50:25.830Z,57.90
2019-04-16T13:53:00.567Z,58.00
2019-04-16T13:55:38.333Z,57.90
2019-04-16T13:58:25.174Z,58.00
2019-04-16T14:00:58.581Z,58.00
2019-04-16T14:03:27.345Z,58.00
2019-04-16T14:05:56.113Z,58.20
2019-04-16T14:08:24.885Z,58.00
2019-04-16T14:10:53.993Z,58.00
2019-04-16T14:13:22.735Z,58.00
2019-04-16T14:15:51.679Z,58.10
2019-04-16T14:18:21.865Z,58.10
2019-04-16T14:20:50.858Z,58.10
2019-04-16T14:23:19.641Z,58.20
2019-04-16T14:25:48.421Z,58.10
2019-04-16T14:28:18.127Z,57.90
2019-04-16T14:30:49.967Z,57.80
2019-04-16T14:33:35.775Z,57.90
2019-04-16T14:36:05.250Z,57.90
2019-04-16T14:38:39.860Z,58.00
2019-04-16T14:41:11.939Z,58.00
2019-04-16T14:43:42.183Z,58.00
2019-04-16T14:46:11.081Z,58.10
2019-04-16T14:48:59.251Z,58.10
2019-04-16T14:51:28.081Z,58.10
2019-04-16T14:54:08.718Z,58.20
2019-04-16T14:56:47.015Z,58.30
2019-04-16T14:59:44.234Z,58.30
2019-04-16T15:02:34.986Z,58.40
2019-04-16T15:05:07.878Z,58.10
2019-04-16T15:07:54.342Z,58.00
2019-04-16T15:10:51.397Z,58.00
2019-04-16T15:13:31.025Z,58.10
2019-04-16T15:16:21.270Z,58.10
2019-04-16T15:19:05.633Z,58.20
2019-04-16T15:21:52.374Z,58.30
2019-04-16T15:24:31.972Z,58.30
2019-04-16T15:27:31.689Z,58.30
2019-04-16T15:30:17.424Z,58.30
2019-04-16T15:33:06.816Z,58.40
2019-04-16T15:35:43.674Z,58.40
2019-04-16T15:38:37.340Z,58.50
2019-04-16T15:41:26.244Z,58.70
2019-04-16T15:44:23.608Z,58.80
2019-04-16T15:47:15.377Z,58.40
2019-04-16T15:49:49.857Z,58.40
2019-04-16T15:52:37.327Z,58.40
2019-04-16T15:55:24.676Z,58.60
2019-04-16T15:58:21.897Z,58.70
2019-04-16T16:01:06.779Z,58.70
2019-04-16T16:04:07.046Z,58.70
2019-04-16T16:06:41.342Z,58.70
2019-04-16T16:09:47.600Z,58.80
2019-04-16T16:12:24.610Z,58.80
2019-04-16T16:14:53.413Z,59.00
2019-04-16T16:17:23.312Z,59.00
2019-04-16T16:19:52.174Z,59.10
2019-04-16T16:22:20.946Z,59.10
2019-04-16T16:24:49.787Z,58.90
2019-04-16T16:27:18.788Z,58.70
2019-04-16T16:29:47.540Z,58.60
2019-04-16T16:32:16.390Z,58.60
2019-04-16T16:34:45.540Z,58.70
2019-04-16T16:37:14.297Z,58.80
2019-04-16T16:39:43.055Z,58.70
2019-04-16T16:42:11.892Z,58.70
2019-04-16T16:44:40.695Z,58.80
2019-04-16T16:47:28.602Z,58.80
2019-04-16T16:49:57.540Z,58.90
2019-04-16T16:52:49.933Z,58.90
2019-04-16T16:55:24.222Z,58.90
2019-04-16T16:57:58.982Z,59.20
2019-04-16T17:00:56.353Z,59.30
2019-04-16T17:03:42.559Z,59.20
2019-04-16T17:06:11.849Z,59.00
2019-04-16T17:08:40.629Z,58.90
2019-04-16T17:11:16.729Z,58.90
2019-04-16T17:13:39.952Z,59.00
2019-04-16T17:16:13.556Z,59.10
2019-04-16T17:18:40.388Z,59.20
2019-04-16T17:21:09.160Z,59.10
2019-04-16T17:23:38.091Z,59.10
2019-04-16T17:26:06.856Z,59.10
2019-04-16T17:28:35.699Z,59.20
2019-04-16T17:31:04.916Z,59.20
2019-04-16T17:33:34.162Z,59.20
2019-04-16T17:36:02.936Z,59.40
2019-04-16T17:38:33.946Z,59.50
2019-04-16T17:41:03.832Z,59.60
2019-04-16T17:44:00.507Z,59.50
2019-04-16T17:46:31.833Z,59.20
2019-04-16T17:49:21.899Z,59.10
2019-04-16T17:52:09.807Z,59.20
2019-04-16T17:55:04.053Z,59.20
2019-04-16T17:57:42.718Z,59.40
2019-04-16T18:00:45.905Z,59.30
2019-04-16T18:03:37.687Z,59.20
2019-04-16T18:06:23.505Z,59.20
2019-04-16T18:09:09.925Z,59.40
2019-04-16T18:11:57.774Z,59.40
2019-04-16T18:14:43.912Z,59.50
2019-04-16T18:17:26.727Z,59.60
2019-04-16T18:20:16.202Z,59.50
2019-04-16T18:22:52.545Z,59.50
2019-04-16T18:25:54.873Z,59.50
2019-04-16T18:28:14.420Z,59.60
2019-04-16T18:30:46.793Z,59.60
2019-04-16T18:33:22.524Z,59.60
2019-04-16T18:36:10.410Z,59.60
2019-04-16T18:38:49.095Z,59.80
2019-04-16T18:41:55.406Z,59.70
2019-04-16T18:44:34.532Z,59.60
2019-04-16T18:47:20.752Z,59.20
2019-04-16T18:49:51.360Z,59.20
2019-04-16T18:52:20.148Z,59.10
2019-04-16T18:54:49.956Z,59.30
2019-04-16T18:57:18.924Z,59.30
2019-04-16T18:59:47.785Z,59.30
2019-04-16T19:02:16.619Z,59.20
2019-04-16T19:04:45.396Z,59.20
2019-04-16T19:07:14.198Z,59.30
2019-04-16T19:09:43.095Z,59.30
2019-04-16T19:12:12.469Z,59.30
2019-04-16T19:14:41.347Z,59.40
2019-04-16T19:17:10.524Z,59.40
2019-04-16T19:19:44.591Z,59.40
2019-04-16T19:22:10.222Z,59.40
2019-04-16T19:24:39.118Z,59.20
2019-04-16T19:27:08.063Z,59.20
2019-04-16T19:29:36.908Z,59.20
2019-04-16T19:32:05.726Z,59.20
2019-04-16T19:34:34.648Z,59.20
2019-04-16T19:37:03.819Z,59.30
2019-04-16T19:39:32.834Z,59.30
2019-04-16T19:42:01.845Z,59.20
2019-04-16T19:44:33.532Z,59.30
2019-04-16T19:47:01.407Z,59.30
2019-04-16T19:49:30.261Z,59.30
2019-04-16T19:51:59.032Z,59.40
2019-04-16T19:54:31.525Z,59.30
2019-04-16T19:56:58.395Z,59.30
2019-04-16T19:59:27.179Z,59.40
2019-04-16T20:02:00.231Z,59.40
2019-04-16T20:04:26.737Z,59.20
2019-04-16T20:06:59.676Z,59.00
2019-04-16T20:09:26.269Z,59.00
2019-04-16T20:11:56.377Z,59.00
2019-04-16T20:14:25.580Z,58.60
2019-04-16T20:16:54.402Z,59.10
2019-04-16T20:19:23.182Z,59.10
2019-04-16T20:21:52.049Z,59.20
2019-04-16T20:24:20.811Z,59.20
2019-04-16T20:26:49.574Z,59.20
2019-04-16T20:29:18.352Z,59.20
2019-04-16T20:31:47.268Z,59.20
2019-04-16T20:34:18.038Z,59.20
2019-04-16T20:36:46.622Z,59.30
2019-04-16T20:39:15.394Z,59.20
2019-04-16T20:41:44.626Z,59.20
2019-04-16T20:44:13.473Z,59.30
2019-04-16T20:46:42.303Z,59.20
2019-04-16T20:49:16.475Z,59.20
2019-04-16T20:51:41.743Z,59.20
2019-04-16T20:54:13.831Z,60.00
2019-04-16T20:56:41.076Z,59.40
2019-04-16T20:59:09.822Z,59.50
2019-04-16T21:01:38.664Z,59.30
2019-04-16T21:04:07.580Z,59.20
2019-04-16T21:06:40.793Z,58.90
2019-04-16T21:09:07.522Z,58.90
2019-04-16T21:11:40.429Z,59.00
2019-04-16T21:14:06.894Z,59.00
2019-04-16T21:16:35.775Z,59.00
2019-04-16T21:19:04.599Z,59.00
2019-04-16T21:21:33.531Z,59.40
2019-04-16T21:24:06.600Z,59.00
2019-04-16T21:26:32.983Z,59.10
2019-04-16T21:29:21.680Z,59.20
2019-04-16T21:31:54.878Z,59.10
2019-04-16T21:34:36.170Z,59.20
2019-04-16T21:37:22.765Z,59.20
2019-04-16T21:39:59.815Z,59.20
2019-04-16T21:42:28.614Z,59.20
2019-04-16T21:44:57.431Z,59.30
2019-04-16T21:47:26.177Z,59.20
2019-04-16T21:49:54.939Z,59.30
2019-04-16T21:52:23.964Z,59.40
2019-04-16T21:54:52.835Z,59.40
2019-04-16T21:57:21.650Z,59.40
2019-04-16T21:59:56.660Z,59.20
2019-04-16T22:02:26.325Z,59.10
2019-04-16T22:04:55.073Z,58.90
2019-04-16T22:07:24.596Z,58.90
2019-04-16T22:09:54.379Z,59.00
2019-04-16T22:12:23.235Z,59.10
2019-04-16T22:14:54.277Z,59.00
2019-04-16T22:17:22.658Z,59.50
2019-04-16T22:19:54.257Z,59.00
2019-04-16T22:22:21.927Z,59.10
2019-04-16T22:24:51.804Z,59.10
2019-04-16T22:27:21.249Z,59.20
2019-04-16T22:29:50.107Z,59.20
2019-04-16T22:32:18.864Z,59.20
2019-04-16T22:34:47.608Z,59.20
2019-04-16T22:37:16.618Z,59.20
2019-04-16T22:40:07.825Z,59.40
2019-04-16T22:42:43.977Z,59.40
2019-04-16T22:45:30.661Z,59.30
2019-04-16T22:47:59.801Z,59.30
2019-04-16T22:50:28.671Z,59.40
2019-04-16T22:52:57.440Z,59.40
2019-04-16T22:55:26.211Z,59.40
2019-04-16T22:57:55.046Z,59.20
2019-04-16T23:00:29.179Z,59.00
2019-04-16T23:02:58.027Z,58.90
2019-04-16T23:05:27.776Z,58.90
2019-04-16T23:07:57.271Z,59.00
2019-04-16T23:10:26.017Z,59.00
2019-04-16T23:12:59.487Z,59.00
2019-04-16T23:15:25.331Z,59.00
2019-04-16T23:17:54.106Z,59.00
2019-04-16T23:20:29.785Z,59.10
2019-04-16T23:22:53.511Z,59.10
2019-04-16T23:25:26.773Z,59.10
2019-04-16T23:27:52.849Z,59.20
2019-04-16T23:30:21.605Z,59.30
2019-04-16T23:32:50.336Z,59.40
2019-04-16T23:35:19.094Z,59.30
2019-04-16T23:37:47.863Z,59.10
2019-04-16T23:40:16.609Z,59.00
2019-04-16T23:43:08.147Z,59.00
2019-04-16T23:46:06.395Z,59.00
2019-04-16T23:49:09.583Z,59.10
2019-04-16T23:51:42.471Z,59.10
2019-04-16T23:54:20.809Z,59.10
2019-04-16T23:56:53.891Z,59.20
2019-04-16T23:59:35.887Z,59.10
